createdAt,value
2023-04-17T00:02:21.638Z,85202.19
2023-04-17T00:04:49.221Z,85225.97
2023-04-17T00:07:16.418Z,85216.50
2023-04-17T00:09:43.368Z,85168.59
2023-04-17T00:12:10.477Z,85224.66
2023-04-17T00:14:37.454Z,85192.53
2023-04-17T00:17:04.424Z,85194.53
2023-04-17T00:19:31.400Z,85166.56
2023-04-17T00:21:58.796Z,85180.28
2023-04-17T00:24:25.771Z,85227.50
2023-04-17T00:26:52.836Z,85179.00
2023-04-17T00:29:19.809Z,85213.78
2023-04-17T00:31:46.828Z,85228.22
2023-04-17T00:34:13.908Z,85235.06
2023-04-17T00:36:40.877Z,85226.19
2023-04-17T00:39:07.740Z,85235.06
2023-04-17T00:41:34.714Z,85240.50
2023-04-17T00:44:01.649Z,85199.53
2023-04-17T00:46:28.623Z,85205.72
2023-04-17T00:48:55.848Z,85196.19
2023-04-17T00:51:22.937Z,85190.03
2023-04-17T00:53:51.712Z,85177.69
2023-04-17T00:56:19.114Z,85239.97
2023-04-17T00:58:46.507Z,85224.25
2023-04-17T01:01:13.641Z,85228.25
2023-04-17T01:03:41.158Z,85229.59
2023-04-17T01:06:08.847Z,85194.09
2023-04-17T01:08:43.350Z,85202.28
2023-04-17T01:11:11.496Z,85237.22
2023-04-17T01:13:49.118Z,85241.97
2023-04-17T01:16:20.644Z,85202.25
2023-04-17T01:18:51.002Z,85179.06
2023-04-17T01:21:18.572Z,85199.53
2023-04-17T01:23:50.166Z,85224.09
2023-04-17T01:26:19.238Z,85219.94
2023-04-17T01:28:53.650Z,85221.31
2023-04-17T01:31:21.667Z,85190.63
2023-04-17T01:33:50.181Z,85206.31
2023-04-17T01:36:17.921Z,85132.47
2023-04-17T01:38:45.176Z,85210.25
2023-04-17T01:41:12.415Z,85158.38
2023-04-17T01:43:41.997Z,85207.50
2023-04-17T01:46:09.151Z,85135.00
2023-04-17T01:48:36.972Z,85132.22
2023-04-17T01:51:04.740Z,85129.44
2023-04-17T01:53:32.937Z,85190.91
2023-04-17T01:56:03.129Z,85183.44
2023-04-17T01:58:30.647Z,85098.09
2023-04-17T02:00:57.760Z,85150.03
2023-04-17T02:03:24.946Z,85131.53
2023-04-17T02:05:55.027Z,85145.72
2023-04-17T02:08:22.206Z,85176.44
2023-04-17T02:10:49.648Z,85142.34
2023-04-17T02:13:16.744Z,85132.16
2023-04-17T02:15:43.887Z,85163.50
2023-04-17T02:18:11.117Z,85149.78
2023-04-17T02:20:38.801Z,85104.03
2023-04-17T02:23:07.011Z,85144.41
2023-04-17T02:25:34.325Z,85105.44
2023-04-17T02:28:01.473Z,85135.34
2023-04-17T02:30:29.443Z,85099.91
2023-04-17T02:32:58.886Z,85153.88
2023-04-17T02:35:27.536Z,85127.16
2023-04-17T02:37:56.035Z,85159.28
2023-04-17T02:40:23.694Z,85144.81
2023-04-17T02:42:56.215Z,85153.72
2023-04-17T02:45:23.194Z,85158.56
2023-04-17T02:47:50.539Z,85152.38
2023-04-17T02:50:18.047Z,85114.81
2023-04-17T02:53:01.893Z,85126.38
2023-04-17T02:55:29.078Z,85150.84
2023-04-17T02:57:56.210Z,85081.38
2023-04-17T03:00:24.297Z,85148.28
2023-04-17T03:02:51.567Z,85131.88
2023-04-17T03:05:20.460Z,85099.13
2023-04-17T03:07:47.923Z,85121.88
2023-04-17T03:10:15.748Z,85099.25
2023-04-17T03:12:44.701Z,85142.78
2023-04-17T03:15:13.253Z,85101.19
2023-04-17T03:17:40.556Z,85144.03
2023-04-17T03:20:09.014Z,85118.19
2023-04-17T03:22:36.801Z,85137.16
2023-04-17T03:25:06.390Z,85085.41
2023-04-17T03:27:56.744Z,85149.63
2023-04-17T03:30:29.690Z,85130.41
2023-04-17T03:32:59.330Z,85140.50
2023-04-17T03:35:29.592Z,85103.09
2023-04-17T03:37:56.518Z,85148.06
2023-04-17T03:40:23.930Z,85039.00
2023-04-17T03:42:51.065Z,85124.81
2023-04-17T03:45:18.291Z,85128.34
2023-04-17T03:47:45.455Z,85108.63
2023-04-17T03:50:12.626Z,85153.63
2023-04-17T03:52:46.742Z,85156.31
2023-04-17T03:55:14.289Z,85139.84
2023-04-17T03:57:43.107Z,85100.25
2023-04-17T04:00:10.801Z,85155.72
2023-04-17T04:02:50.910Z,85154.94
2023-04-17T04:05:23.518Z,85145.41
2023-04-17T04:07:50.714Z,85154.25
2023-04-17T04:10:25.100Z,85165.94
2023-04-17T04:12:52.089Z,85078.53
2023-04-17T04:15:19.175Z,85094.88
2023-04-17T04:17:50.139Z,85158.97
2023-04-17T04:20:17.350Z,85080.66
2023-04-17T04:22:45.066Z,85130.50
2023-04-17T04:25:12.840Z,85103.16
2023-04-17T04:27:49.958Z,85171.38
2023-04-17T04:30:25.621Z,85114.00
2023-04-17T04:33:01.380Z,85139.31
2023-04-17T04:35:30.393Z,85178.13
2023-04-17T04:38:02.327Z,85171.34
2023-04-17T04:40:38.444Z,85103.81
2023-04-17T04:43:07.577Z,85150.88
2023-04-17T04:45:41.956Z,85059.47
2023-04-17T04:48:09.068Z,85163.06
2023-04-17T04:50:36.154Z,85186.22
2023-04-17T04:53:03.297Z,85093.47
2023-04-17T04:55:52.513Z,85176.72
2023-04-17T04:58:19.593Z,85182.19
2023-04-17T05:00:48.327Z,85182.78
2023-04-17T05:03:23.507Z,85158.16
2023-04-17T05:05:51.756Z,85179.91
2023-04-17T05:08:21.557Z,85174.31
2023-04-17T05:10:57.348Z,85181.16
2023-04-17T05:13:24.482Z,85177.66
2023-04-17T05:15:51.727Z,85117.66
2023-04-17T05:18:21.551Z,85168.09
2023-04-17T05:20:50.492Z,85169.91
2023-04-17T05:23:21.655Z,85133.84
2023-04-17T05:25:49.864Z,85168.53
2023-04-17T05:28:17.288Z,85124.22
2023-04-17T05:30:46.618Z,85139.16
2023-04-17T05:33:19.202Z,85123.91
2023-04-17T05:35:48.575Z,85161.50
2023-04-17T05:38:15.854Z,85148.44
2023-04-17T05:40:42.855Z,85131.38
2023-04-17T05:43:11.755Z,85168.75
2023-04-17T05:45:41.684Z,85172.81
2023-04-17T05:48:09.652Z,85164.47
2023-04-17T05:50:37.709Z,85174.00
2023-04-17T05:53:06.633Z,85158.97
2023-04-17T05:55:43.393Z,85105.56
2023-04-17T05:58:22.984Z,85150.41
2023-04-17T06:00:53.058Z,85162.47
2023-04-17T06:03:21.334Z,85182.84
2023-04-17T06:05:53.830Z,85184.06
2023-04-17T06:08:20.809Z,85152.56
2023-04-17T06:10:50.266Z,85150.66
2023-04-17T06:13:17.600Z,85117.31
2023-04-17T06:15:48.283Z,85173.28
2023-04-17T06:18:16.382Z,85203.03
2023-04-17T06:20:44.895Z,85196.75
2023-04-17T06:23:12.150Z,85195.25
2023-04-17T06:25:39.244Z,85179.38
2023-04-17T06:28:06.219Z,85136.06
2023-04-17T06:30:34.284Z,85172.84
2023-04-17T06:33:02.616Z,85164.00
2023-04-17T06:35:30.989Z,85138.03
2023-04-17T06:38:10.915Z,85206.66
2023-04-17T06:40:38.650Z,85163.66
2023-04-17T06:43:08.316Z,85171.97
2023-04-17T06:45:42.203Z,85209.50
2023-04-17T06:48:09.542Z,85173.25
2023-04-17T06:50:39.260Z,85171.75
2023-04-17T06:53:06.617Z,85208.72
2023-04-17T06:55:33.848Z,85208.16
2023-04-17T06:58:00.972Z,85202.63
2023-04-17T07:00:27.968Z,85213.97
2023-04-17T07:02:57.802Z,85192.09
2023-04-17T07:05:24.968Z,85216.53
2023-04-17T07:07:52.027Z,85184.41
2023-04-17T07:10:19.925Z,85217.75
2023-04-17T07:12:47.038Z,85199.97
2023-04-17T07:15:14.352Z,85216.09
2023-04-17T07:17:43.905Z,85191.34
2023-04-17T07:20:11.268Z,84877.13
2023-04-17T07:22:38.376Z,85214.56
2023-04-17T07:25:06.250Z,85211.75
2023-04-17T07:27:33.237Z,85192.56
2023-04-17T07:30:01.012Z,85200.69
2023-04-17T07:32:28.645Z,85184.19
2023-04-17T07:34:55.740Z,85186.28
2023-04-17T07:37:22.699Z,85217.38
2023-04-17T07:39:50.661Z,85220.72
2023-04-17T07:42:17.686Z,85237.88
2023-04-17T07:44:44.769Z,85210.59
2023-04-17T07:47:11.772Z,85236.38
2023-04-17T07:49:40.640Z,85214.41
2023-04-17T07:52:07.750Z,85226.66
2023-04-17T07:54:34.653Z,85234.84
2023-04-17T07:57:03.109Z,85232.72
2023-04-17T07:59:30.868Z,85216.94
2023-04-17T08:02:00.949Z,85232.81
2023-04-17T08:04:28.177Z,85235.53
2023-04-17T08:06:55.526Z,85229.31
2023-04-17T08:09:22.781Z,85181.25
2023-04-17T08:11:56.120Z,85241.59
2023-04-17T08:14:24.011Z,85237.56
2023-04-17T08:16:51.045Z,85240.47
2023-04-17T08:19:18.249Z,85188.56
2023-04-17T08:21:48.254Z,85209.19
2023-04-17T08:24:17.175Z,85227.63
2023-04-17T08:26:45.897Z,85258.44
2023-04-17T08:29:13.224Z,85263.94
2023-04-17T08:31:40.719Z,85233.34
2023-04-17T08:34:14.503Z,85224.94
2023-04-17T08:36:42.902Z,85189.72
2023-04-17T08:39:12.336Z,85238.81
2023-04-17T08:42:03.058Z,85269.34
2023-04-17T08:44:31.338Z,85277.63
2023-04-17T08:46:59.255Z,85272.03
2023-04-17T08:49:29.596Z,85282.34
2023-04-17T08:51:57.084Z,85272.25
2023-04-17T08:54:24.227Z,85247.84
2023-04-17T08:56:51.276Z,85247.78
2023-04-17T08:59:18.342Z,85230.22
2023-04-17T09:02:01.387Z,85297.00
2023-04-17T09:04:54.827Z,85282.09
2023-04-17T09:07:30.668Z,85282.38
2023-04-17T09:09:57.866Z,85209.38
2023-04-17T09:12:26.881Z,85304.13
2023-04-17T09:14:54.006Z,85289.19
2023-04-17T09:17:21.888Z,85261.94
2023-04-17T09:20:09.262Z,85313.84
2023-04-17T09:22:37.768Z,85288.00
2023-04-17T09:25:05.441Z,85281.84
2023-04-17T09:27:32.665Z,85234.91
2023-04-17T09:30:06.151Z,85258.72
2023-04-17T09:32:34.167Z,85318.03
2023-04-17T09:35:05.105Z,85314.03
2023-04-17T09:37:50.283Z,85326.56
2023-04-17T09:40:18.920Z,85309.41
2023-04-17T09:43:04.084Z,85271.28
2023-04-17T09:45:40.277Z,85321.13
2023-04-17T09:48:09.294Z,85299.41
2023-04-17T09:50:38.664Z,85288.59
2023-04-17T09:53:07.709Z,85296.09
2023-04-17T09:55:36.736Z,85279.16
2023-04-17T09:58:07.559Z,85329.50
2023-04-17T10:00:36.981Z,85278.00
2023-04-17T10:03:04.764Z,85293.06
2023-04-17T10:05:32.685Z,85329.94
2023-04-17T10:08:00.709Z,85305.28
2023-04-17T10:10:31.440Z,85269.88
2023-04-17T10:13:00.884Z,85302.78
2023-04-17T10:15:29.468Z,85319.00
2023-04-17T10:18:20.770Z,85280.25
2023-04-17T10:20:49.024Z,85235.09
2023-04-17T10:23:35.453Z,85319.50
2023-04-17T10:26:28.138Z,85325.06
2023-04-17T10:28:58.036Z,85322.03
2023-04-17T10:32:08.316Z,85319.09
2023-04-17T10:34:41.089Z,85321.09
2023-04-17T10:37:15.493Z,85319.03
2023-04-17T10:40:02.412Z,85287.09
2023-04-17T10:42:30.814Z,85312.25
2023-04-17T10:45:01.905Z,85309.41
2023-04-17T10:47:35.860Z,85218.03
2023-04-17T10:50:04.665Z,85284.47
2023-04-17T10:52:35.027Z,85296.50
2023-04-17T10:55:08.154Z,85289.53
2023-04-17T10:57:58.136Z,85303.91
2023-04-17T11:00:32.356Z,85253.91
2023-04-17T11:03:01.370Z,85265.38
2023-04-17T11:05:28.995Z,85244.06
2023-04-17T11:07:56.157Z,85283.00
2023-04-17T11:10:23.443Z,85236.03
2023-04-17T11:12:56.926Z,85267.00
2023-04-17T11:15:31.342Z,85233.59
2023-04-17T11:18:00.132Z,85279.78
2023-04-17T11:20:30.282Z,85268.97
2023-04-17T11:23:01.432Z,85293.47
2023-04-17T11:25:34.337Z,85273.22
2023-04-17T11:28:03.763Z,85288.38
2023-04-17T11:30:33.738Z,85261.06
2023-04-17T11:33:08.084Z,85228.72
2023-04-17T11:35:37.306Z,85277.00
2023-04-17T11:38:20.779Z,85280.91
2023-04-17T11:40:55.998Z,85273.19
2023-04-17T11:43:23.995Z,85204.28
2023-04-17T11:45:53.110Z,85221.75
2023-04-17T11:48:28.476Z,85283.13
2023-04-17T11:51:01.397Z,85271.19
2023-04-17T11:53:28.583Z,85266.19
2023-04-17T11:56:15.300Z,85230.84
2023-04-17T11:58:53.262Z,85265.47
2023-04-17T12:01:24.902Z,85253.69
2023-04-17T12:03:54.203Z,85261.72
2023-04-17T12:06:21.733Z,85221.38
2023-04-17T12:08:54.072Z,85262.63
2023-04-17T12:11:32.935Z,85262.53
2023-04-17T12:14:01.008Z,85245.25
2023-04-17T12:16:29.545Z,85255.31
2023-04-17T12:18:57.418Z,85262.22
2023-04-17T12:21:24.638Z,85222.75
2023-04-17T12:23:52.026Z,85240.25
2023-04-17T12:26:19.254Z,85241.34
2023-04-17T12:28:46.201Z,85241.38
2023-04-17T12:31:13.657Z,85238.78
2023-04-17T12:33:40.743Z,85203.19
2023-04-17T12:36:09.238Z,85243.97
2023-04-17T12:38:36.514Z,85247.94
2023-04-17T12:41:03.523Z,85233.03
2023-04-17T12:43:33.329Z,85249.88
2023-04-17T12:46:00.791Z,85267.34
2023-04-17T12:48:28.000Z,85243.13
2023-04-17T12:50:54.999Z,85193.97
2023-04-17T12:53:22.116Z,85242.72
2023-04-17T12:55:49.050Z,85246.84
2023-04-17T12:58:16.420Z,85174.66
2023-04-17T13:00:46.620Z,85230.81
2023-04-17T13:03:13.901Z,85229.06
2023-04-17T13:05:41.410Z,85176.47
2023-04-17T13:08:15.018Z,85226.03
2023-04-17T13:10:42.774Z,85210.00
2023-04-17T13:13:11.523Z,85260.16
2023-04-17T13:15:40.496Z,85236.34
2023-04-17T13:18:08.370Z,85221.69
2023-04-17T13:20:35.701Z,85144.31
2023-04-17T13:23:02.922Z,85250.34
2023-04-17T13:25:30.948Z,85240.06
2023-04-17T13:27:58.830Z,85191.09
2023-04-17T13:30:26.528Z,85150.44
2023-04-17T13:32:53.791Z,85126.34
2023-04-17T13:35:20.861Z,85194.50
2023-04-17T13:37:48.401Z,85242.28
2023-04-17T13:40:17.376Z,85170.28
2023-04-17T13:42:44.646Z,85196.56
2023-04-17T13:45:12.627Z,85198.63
2023-04-17T13:47:39.857Z,85236.28
2023-04-17T13:50:07.659Z,85227.28
2023-04-17T13:52:34.804Z,85186.97
2023-04-17T13:55:01.790Z,85128.69
2023-04-17T13:57:29.268Z,85225.41
2023-04-17T13:59:56.327Z,85206.94
2023-04-17T14:02:23.613Z,85231.91
2023-04-17T14:04:50.884Z,85229.03
2023-04-17T14:07:18.649Z,85255.31
2023-04-17T14:09:45.770Z,85263.91
2023-04-17T14:12:16.948Z,85255.84
2023-04-17T14:14:43.900Z,85238.88
2023-04-17T14:17:11.062Z,85256.34
2023-04-17T14:19:38.166Z,85229.50
2023-04-17T14:22:05.178Z,85215.75
2023-04-17T14:24:32.130Z,85232.19
2023-04-17T14:26:59.164Z,85225.78
2023-04-17T14:29:26.142Z,85242.47
2023-04-17T14:31:53.541Z,85215.34
2023-04-17T14:34:20.644Z,85255.22
2023-04-17T14:36:47.630Z,85239.00
2023-04-17T14:39:14.897Z,85244.59
2023-04-17T14:41:41.955Z,85202.53
2023-04-17T14:44:08.994Z,85261.66
2023-04-17T14:46:36.283Z,85264.53
2023-04-17T14:49:03.605Z,85231.94
2023-04-17T14:51:30.928Z,85218.22
2023-04-17T14:53:58.304Z,85253.78
2023-04-17T14:56:25.502Z,85243.94
2023-04-17T14:58:52.648Z,85223.03
2023-04-17T15:01:19.749Z,85242.81
2023-04-17T15:03:48.632Z,85222.97
2023-04-17T15:06:16.932Z,85161.09
2023-04-17T15:08:44.027Z,85230.56
2023-04-17T15:11:11.039Z,85241.88
2023-04-17T15:13:40.255Z,85228.00
2023-04-17T15:16:09.640Z,85196.03
2023-04-17T15:18:39.388Z,85193.63
2023-04-17T15:21:06.966Z,85222.41
2023-04-17T15:23:34.935Z,85229.84
2023-04-17T15:26:02.321Z,85196.19
2023-04-17T15:28:29.642Z,85194.50
2023-04-17T15:30:57.040Z,85181.97
2023-04-17T15:33:24.022Z,85185.97
2023-04-17T15:35:58.760Z,85208.81
2023-04-17T15:38:26.673Z,85198.56
2023-04-17T15:40:54.092Z,85206.63
2023-04-17T15:43:21.386Z,85209.88
2023-04-17T15:45:49.454Z,85182.44
2023-04-17T15:48:16.577Z,85079.66
2023-04-17T15:50:44.087Z,85206.78
2023-04-17T15:53:11.193Z,85174.13
2023-04-17T15:55:38.627Z,85217.75
2023-04-17T15:58:06.155Z,85230.88
2023-04-17T16:00:34.210Z,85216.13
2023-04-17T16:03:01.437Z,85201.66
2023-04-17T16:05:30.368Z,85223.25
2023-04-17T16:07:57.875Z,85230.97
2023-04-17T16:10:25.237Z,85211.28
2023-04-17T16:12:52.440Z,85138.19
2023-04-17T16:15:19.482Z,85216.97
2023-04-17T16:17:48.957Z,85206.78
2023-04-17T16:20:17.004Z,85236.28
2023-04-17T16:22:44.464Z,85228.00
2023-04-17T16:25:14.551Z,85233.59
2023-04-17T16:27:41.601Z,85179.47
2023-04-17T16:30:16.469Z,85201.13
2023-04-17T16:32:48.923Z,85240.50
2023-04-17T16:35:16.367Z,85237.94
2023-04-17T16:37:43.760Z,85243.22
2023-04-17T16:40:11.733Z,85244.84
2023-04-17T16:42:38.870Z,85243.63
2023-04-17T16:45:06.651Z,85220.88
2023-04-17T16:47:33.792Z,85171.13
2023-04-17T16:50:00.858Z,85212.00
2023-04-17T16:52:27.912Z,85209.03
2023-04-17T16:54:54.815Z,85195.59
2023-04-17T16:57:21.761Z,85252.53
2023-04-17T16:59:48.728Z,85145.25
2023-04-17T17:02:15.959Z,85175.34
2023-04-17T17:04:44.953Z,85266.28
2023-04-17T17:07:12.281Z,85248.00
2023-04-17T17:09:39.331Z,85231.00
2023-04-17T17:12:12.192Z,85276.19
2023-04-17T17:14:39.331Z,85217.84
2023-04-17T17:17:06.252Z,85269.16
2023-04-17T17:19:33.208Z,85288.38
2023-04-17T17:22:00.242Z,85228.44
2023-04-17T17:24:27.222Z,85271.97
2023-04-17T17:26:54.164Z,85295.25
2023-04-17T17:29:21.260Z,85291.13
2023-04-17T17:31:48.425Z,85248.69
2023-04-17T17:34:25.939Z,85264.91
2023-04-17T17:36:53.848Z,85287.19
2023-04-17T17:39:22.294Z,85303.72
2023-04-17T17:41:49.624Z,85274.28
2023-04-17T17:44:16.776Z,85265.50
2023-04-17T17:46:43.901Z,85285.34
2023-04-17T17:49:10.938Z,85312.66
2023-04-17T17:51:37.906Z,85312.00
2023-04-17T17:54:08.185Z,85305.25
2023-04-17T17:56:35.093Z,85299.22
2023-04-17T17:59:02.093Z,85318.28
2023-04-17T18:01:29.188Z,85308.75
2023-04-17T18:03:56.453Z,85317.56
2023-04-17T18:06:23.655Z,85296.66
2023-04-17T18:08:50.643Z,85266.47
2023-04-17T18:11:17.688Z,85312.88
2023-04-17T18:13:45.011Z,85324.69
2023-04-17T18:16:12.037Z,85321.41
2023-04-17T18:18:39.264Z,85311.88
2023-04-17T18:21:07.390Z,85300.81
2023-04-17T18:23:36.886Z,85262.63
2023-04-17T18:26:04.519Z,85310.66
2023-04-17T18:28:32.680Z,85320.94
2023-04-17T18:30:59.623Z,85323.00
2023-04-17T18:33:26.660Z,85302.53
2023-04-17T18:35:53.662Z,85321.72
2023-04-17T18:38:20.676Z,85339.41
2023-04-17T18:40:47.724Z,85292.50
2023-04-17T18:43:14.862Z,85347.75
2023-04-17T18:45:41.978Z,85340.06
2023-04-17T18:48:09.143Z,85261.00
2023-04-17T18:50:40.622Z,85327.75
2023-04-17T18:53:07.625Z,85333.66
2023-04-17T18:55:37.357Z,85313.84
2023-04-17T18:58:07.134Z,85281.91
2023-04-17T19:00:34.069Z,85308.63
2023-04-17T19:03:01.061Z,85299.81
2023-04-17T19:05:28.249Z,85302.47
2023-04-17T19:07:55.364Z,85273.97
2023-04-17T19:10:23.197Z,85305.44
2023-04-17T19:12:50.138Z,85257.69
2023-04-17T19:15:17.873Z,85315.78
2023-04-17T19:17:44.879Z,85342.34
2023-04-17T19:20:12.126Z,85304.19
2023-04-17T19:22:39.171Z,85298.81
2023-04-17T19:25:06.681Z,85294.72
2023-04-17T19:27:33.672Z,85335.81
2023-04-17T19:30:00.665Z,85305.88
2023-04-17T19:32:28.291Z,85340.03
2023-04-17T19:34:56.298Z,85340.88
2023-04-17T19:37:23.309Z,85317.19
2023-04-17T19:39:51.582Z,85288.47
2023-04-17T19:42:21.167Z,85321.03
2023-04-17T19:44:48.074Z,85295.81
2023-04-17T19:47:15.097Z,85293.19
2023-04-17T19:49:42.075Z,85309.53
2023-04-17T19:52:09.165Z,85298.19
2023-04-17T19:54:36.124Z,85331.66
2023-04-17T19:57:03.110Z,85326.88
2023-04-17T19:59:30.278Z,85297.50
2023-04-17T20:01:57.262Z,85329.44
2023-04-17T20:04:24.398Z,85304.94
2023-04-17T20:06:51.479Z,85250.31
2023-04-17T20:09:18.640Z,85281.75
2023-04-17T20:11:45.857Z,85313.16
2023-04-17T20:14:14.884Z,85273.63
2023-04-17T20:16:42.219Z,85333.88
2023-04-17T20:19:09.618Z,85281.44
2023-04-17T20:21:36.562Z,85285.66
2023-04-17T20:24:03.709Z,85323.16
2023-04-17T20:26:30.680Z,85319.63
2023-04-17T20:28:57.755Z,85305.22
2023-04-17T20:31:24.848Z,85319.63
2023-04-17T20:33:51.877Z,85292.78
2023-04-17T20:36:18.904Z,85225.97
2023-04-17T20:38:46.125Z,85300.09
2023-04-17T20:41:13.293Z,85309.50
2023-04-17T20:43:40.382Z,85263.13
2023-04-17T20:46:08.111Z,85325.91
2023-04-17T20:48:35.130Z,85304.19
2023-04-17T20:51:06.036Z,85322.13
2023-04-17T20:53:33.146Z,85286.69
2023-04-17T20:56:00.260Z,85240.25
2023-04-17T20:58:27.280Z,85279.13
2023-04-17T21:01:01.381Z,85259.38
2023-04-17T21:03:31.127Z,85323.47
2023-04-17T21:05:58.295Z,85270.94
2023-04-17T21:08:25.401Z,85327.84
2023-04-17T21:10:52.680Z,85323.69
2023-04-17T21:13:19.661Z,85331.22
2023-04-17T21:15:46.681Z,85327.84
2023-04-17T21:18:13.914Z,85273.19
2023-04-17T21:20:42.018Z,85327.78
2023-04-17T21:23:09.363Z,85305.88
2023-04-17T21:25:36.331Z,85320.94
2023-04-17T21:28:03.369Z,85303.19
2023-04-17T21:30:30.307Z,85320.97
2023-04-17T21:32:57.340Z,85256.78
2023-04-17T21:35:24.396Z,85314.25
2023-04-17T21:37:51.401Z,85262.53
2023-04-17T21:40:18.423Z,85238.72
2023-04-17T21:42:45.589Z,85269.41
2023-04-17T21:45:12.550Z,85327.47
2023-04-17T21:47:39.635Z,85277.63
2023-04-17T21:50:07.357Z,85332.34
2023-04-17T21:52:34.400Z,85332.34
2023-04-17T21:55:05.273Z,85288.63
2023-04-17T21:57:32.446Z,85212.38
2023-04-17T21:59:59.962Z,85333.94
2023-04-17T22:02:27.103Z,85269.69
2023-04-17T22:04:54.457Z,85335.28
2023-04-17T22:07:21.744Z,85331.13
2023-04-17T22:09:49.070Z,85298.34
2023-04-17T22:12:22.986Z,85328.41
2023-04-17T22:14:50.065Z,85238.50
2023-04-17T22:17:16.998Z,85301.41
2023-04-17T22:19:43.957Z,85287.72
2023-04-17T22:22:11.230Z,85290.91
2023-04-17T22:24:38.177Z,85327.88
2023-04-17T22:27:05.558Z,85345.19
2023-04-17T22:29:32.547Z,85330.06
2023-04-17T22:31:59.826Z,85317.78
2023-04-17T22:34:26.857Z,85306.22
2023-04-17T22:36:53.876Z,85326.06
2023-04-17T22:39:21.424Z,85328.88
2023-04-17T22:41:48.452Z,85327.50
2023-04-17T22:44:15.570Z,85248.38
2023-04-17T22:46:42.894Z,85322.06
2023-04-17T22:49:10.044Z,85270.94
2023-04-17T22:51:37.206Z,85327.63
2023-04-17T22:54:19.224Z,85327.63
2023-04-17T22:56:48.924Z,85338.66
2023-04-17T22:59:16.115Z,85320.13
2023-04-17T23:01:43.247Z,85325.63
2023-04-17T23:04:10.590Z,85316.72
2023-04-17T23:06:37.573Z,85265.50
2023-04-17T23:09:05.137Z,85319.47
2023-04-17T23:11:33.128Z,85269.66
2023-04-17T23:14:01.507Z,85319.56
2023-04-17T23:16:30.202Z,85305.84
2023-04-17T23:18:57.277Z,85263.59
2023-04-17T23:21:24.729Z,85322.38
2023-04-17T23:23:51.966Z,85212.41
2023-04-17T23:26:19.231Z,85257.38
2023-04-17T23:28:46.260Z,85315.53
2023-04-17T23:31:13.908Z,85293.09
2023-04-17T23:33:41.029Z,85314.13
2023-04-17T23:36:08.155Z,85265.00
2023-04-17T23:38:35.197Z,85299.88
2023-04-17T23:41:02.206Z,85260.81
2023-04-17T23:43:29.312Z,85259.66
2023-04-17T23:45:57.842Z,85270.03
2023-04-17T23:48:24.900Z,85308.31
2023-04-17T23:50:51.835Z,85251.66
2023-04-17T23:53:18.741Z,85254.38
2023-04-17T23:55:46.063Z,85313.88
2023-04-17T23:58:13.234Z,85284.53
